createdAt,value
2018-07-28T04:40:51.240Z,32.60
2018-07-28T04:43:19.428Z,23.60
2018-07-28T04:45:47.599Z,23.40
2018-07-28T04:48:15.811Z,23.40
2018-07-28T04:50:44.004Z,23.40
2018-07-28T04:53:12.203Z,23.50
2018-07-28T04:55:40.396Z,23.40
2018-07-28T04:58:08.551Z,23.40
2018-07-28T05:00:36.724Z,23.50
2018-07-28T05:03:04.943Z,23.60
2018-07-28T05:05:33.130Z,23.60
2018-07-28T05:10:29.275Z,23.60
2018-07-28T05:12:57.497Z,23.70
2018-07-28T05:15:25.686Z,23.70
2018-07-28T05:17:53.868Z,23.60
2018-07-28T05:20:22.043Z,23.50
2018-07-28T05:22:50.252Z,23.50
2018-07-28T05:25:18.452Z,23.50
2018-07-28T05:27:46.619Z,23.50
2018-07-28T05:30:14.768Z,23.50
2018-07-28T05:32:42.955Z,23.40
2018-07-28T05:35:11.546Z,23.40
2018-07-28T05:37:40.039Z,23.30
2018-07-28T05:40:08.215Z,23.40
2018-07-28T05:42:36.474Z,23.40
2018-07-28T05:45:05.420Z,23.40
2018-07-28T05:47:33.688Z,23.30
2018-07-28T05:50:01.916Z,23.30
2018-07-28T05:52:30.025Z,23.40
2018-07-28T05:54:58.200Z,23.60
2018-07-28T05:57:26.680Z,23.70
2018-07-28T05:59:54.933Z,23.80
2018-07-28T06:02:23.250Z,23.90
2018-07-28T06:04:51.376Z,24.00
2018-07-28T06:07:19.564Z,24.10
2018-07-28T06:09:47.840Z,24.40
2018-07-28T06:12:16.030Z,24.50
2018-07-28T06:14:44.209Z,24.70
2018-07-28T06:17:12.420Z,24.80
2018-07-28T06:19:40.646Z,25.00
2018-07-28T06:22:08.833Z,25.10
2018-07-28T06:24:37.076Z,25.10
2018-07-28T06:27:05.321Z,25.20
2018-07-28T06:32:01.484Z,25.30
2018-07-28T06:34:29.713Z,25.50
2018-07-28T06:36:57.872Z,25.50
2018-07-28T06:39:26.099Z,25.40
2018-07-28T06:41:54.280Z,25.40
2018-07-28T06:44:22.464Z,25.60
2018-07-28T06:46:50.641Z,25.70
2018-07-28T06:49:18.824Z,25.80
2018-07-28T06:51:47.097Z,26.00
2018-07-28T06:54:15.301Z,26.00
2018-07-28T06:56:43.513Z,26.10
2018-07-28T06:59:11.701Z,26.40
2018-07-28T07:01:39.989Z,26.60
2018-07-28T07:04:08.189Z,26.50
2018-07-28T07:06:36.397Z,26.60
2018-07-28T07:09:07.586Z,26.60
2018-07-28T07:11:35.778Z,26.80
2018-07-28T07:14:04.105Z,26.80
2018-07-28T07:16:32.334Z,26.90
2018-07-28T07:19:00.521Z,26.90
2018-07-28T07:21:28.749Z,27.00
2018-07-28T07:23:56.929Z,27.00
2018-07-28T07:26:25.154Z,27.40
2018-07-28T07:28:53.529Z,27.70
2018-07-28T07:31:21.694Z,27.90
2018-07-28T07:33:49.865Z,28.00
2018-07-28T07:36:18.038Z,28.00
2018-07-28T07:38:46.242Z,27.90
2018-07-28T07:41:15.306Z,27.70
2018-07-28T07:43:43.582Z,27.90
2018-07-28T07:46:11.775Z,28.10
2018-07-28T07:48:39.997Z,28.00
2018-07-28T07:51:08.217Z,28.10
2018-07-28T07:53:36.466Z,28.20
2018-07-28T07:56:04.667Z,28.40
2018-07-28T07:58:32.864Z,28.30
2018-07-28T08:01:01.062Z,28.20
2018-07-28T08:03:29.230Z,28.40
2018-07-28T08:05:57.410Z,28.30
2018-07-28T08:08:25.649Z,28.50
2018-07-28T08:10:53.831Z,28.40
2018-07-28T08:13:22.030Z,28.20
2018-07-28T08:15:50.334Z,28.00
2018-07-28T08:18:18.598Z,27.70
2018-07-28T08:20:46.770Z,27.80
2018-07-28T08:23:15.820Z,28.00
2018-07-28T08:25:44.014Z,28.00
2018-07-28T08:28:12.187Z,28.20
2018-07-28T08:30:40.394Z,28.40
2018-07-28T08:33:08.567Z,28.50
2018-07-28T08:35:36.723Z,28.30
2018-07-28T08:38:05.068Z,28.00
2018-07-28T08:40:33.319Z,27.80
2018-07-28T08:43:01.488Z,27.90
2018-07-28T08:45:29.681Z,28.00
2018-07-28T08:47:57.882Z,28.00
2018-07-28T08:50:26.088Z,27.80
2018-07-28T08:52:54.254Z,27.70
2018-07-28T08:55:22.447Z,27.60
2018-07-28T08:57:50.614Z,27.60
2018-07-28T09:00:18.886Z,27.60
2018-07-28T09:02:47.058Z,27.50
2018-07-28T09:05:16.036Z,27.40
2018-07-28T09:07:44.371Z,27.30
2018-07-28T09:10:12.566Z,27.30
2018-07-28T09:12:40.730Z,27.20
2018-07-28T09:15:09.951Z,27.20
2018-07-28T09:17:38.107Z,27.20
2018-07-28T09:20:07.038Z,27.30
2018-07-28T09:22:35.334Z,27.20
2018-07-28T09:25:03.555Z,27.20
2018-07-28T09:27:31.761Z,27.20
2018-07-28T09:29:59.938Z,27.10
2018-07-28T09:32:28.201Z,27.10
2018-07-28T09:34:56.407Z,27.00
2018-07-28T09:37:24.707Z,27.10
2018-07-28T09:39:53.338Z,27.10
2018-07-28T09:42:21.527Z,27.20
2018-07-28T09:44:49.681Z,26.80
2018-07-28T09:47:17.864Z,26.80
2018-07-28T09:49:46.120Z,26.90
2018-07-28T09:52:14.331Z,27.00
2018-07-28T09:54:42.510Z,27.00
2018-07-28T09:57:10.688Z,27.10
2018-07-28T09:59:38.892Z,27.10
2018-07-28T10:02:07.712Z,27.10
2018-07-28T10:04:35.915Z,26.90
2018-07-28T10:09:32.135Z,26.80
2018-07-28T10:12:00.451Z,26.70
2018-07-28T10:14:28.923Z,26.70
2018-07-28T10:16:57.140Z,26.80
2018-07-28T10:19:25.412Z,26.70
2018-07-28T10:21:53.604Z,26.30
2018-07-28T10:24:21.835Z,25.90
2018-07-28T10:26:50.011Z,25.80
2018-07-28T10:29:18.210Z,25.70
2018-07-28T10:31:46.382Z,25.70
2018-07-28T10:36:42.535Z,25.60
2018-07-28T10:39:13.363Z,25.60
2018-07-28T10:41:41.754Z,25.50
2018-07-28T10:44:09.963Z,25.30
2018-07-28T10:49:06.121Z,25.00
2018-07-28T10:51:34.422Z,25.00
2018-07-28T10:54:02.603Z,25.00
2018-07-28T10:56:30.811Z,25.10
2018-07-28T10:58:59.039Z,25.10
2018-07-28T11:01:27.226Z,25.10
2018-07-28T11:03:55.462Z,24.90
2018-07-28T11:06:23.661Z,24.90
2018-07-28T11:08:51.816Z,25.00
2018-07-28T11:11:19.987Z,25.30
2018-07-28T11:13:48.248Z,25.40
2018-07-28T11:16:17.051Z,25.40
2018-07-28T11:18:45.362Z,25.60
2018-07-28T11:21:13.515Z,25.80
2018-07-28T11:23:54.667Z,26.00
2018-07-28T11:26:22.971Z,26.20
2018-07-28T11:28:51.836Z,26.20
2018-07-28T11:31:31.691Z,26.40
2018-07-28T11:34:11.315Z,26.30
2018-07-28T11:36:51.016Z,26.40
2018-07-28T11:39:31.271Z,26.50
2018-07-28T11:42:10.824Z,26.60
2018-07-28T11:44:50.392Z,26.40
2018-07-28T11:47:18.615Z,26.50
2018-07-28T11:49:46.886Z,26.60
2018-07-28T11:52:15.247Z,26.70
2018-07-28T11:54:43.426Z,26.90
2018-07-28T11:57:11.623Z,27.00
2018-07-28T11:59:39.875Z,26.90
2018-07-28T12:02:08.091Z,27.20
2018-07-28T12:04:36.270Z,27.50
2018-07-28T12:07:04.536Z,27.70
2018-07-28T12:09:32.727Z,27.40
2018-07-28T12:12:00.927Z,27.10
2018-07-28T12:14:29.119Z,27.20
2018-07-28T12:16:57.359Z,27.10
2018-07-28T12:19:25.568Z,27.00
2018-07-28T12:21:53.756Z,27.00
2018-07-28T12:24:21.948Z,27.20
2018-07-28T12:26:50.119Z,27.40
2018-07-28T12:34:14.947Z,28.40
2018-07-28T12:36:43.120Z,29.00
2018-07-28T12:39:11.848Z,29.10
2018-07-28T12:41:40.036Z,29.00
2018-07-28T12:44:08.195Z,28.70
2018-07-28T12:46:36.372Z,28.70
2018-07-28T12:49:04.624Z,28.80
2018-07-28T12:51:32.835Z,28.80
2018-07-28T12:54:01.144Z,29.10
2018-07-28T12:56:29.320Z,28.90
2018-07-28T12:58:57.472Z,29.50
2018-07-28T13:01:25.804Z,29.60
2018-07-28T13:03:54.085Z,29.70
2018-07-28T13:06:22.300Z,30.00
2018-07-28T13:08:50.477Z,30.30
2018-07-28T13:11:18.659Z,30.60
2018-07-28T13:13:46.834Z,30.80
2018-07-28T13:16:15.022Z,31.00
2018-07-28T13:18:43.232Z,31.20
2018-07-28T13:21:11.430Z,30.60
2018-07-28T13:23:39.622Z,30.20
2018-07-28T13:26:07.894Z,30.40
2018-07-28T13:28:36.121Z,30.30
2018-07-28T13:31:04.402Z,30.50
2018-07-28T13:33:32.624Z,30.80
2018-07-28T13:36:00.817Z,30.90
2018-07-28T13:40:56.968Z,30.60
2018-07-28T13:43:25.225Z,30.30
2018-07-28T13:45:53.462Z,30.30
2018-07-28T13:48:21.669Z,30.40
2018-07-28T13:50:49.957Z,30.50
2018-07-28T13:53:18.373Z,30.20
2018-07-28T13:55:46.649Z,30.30
2018-07-28T13:58:14.830Z,30.40
2018-07-28T14:00:43.005Z,30.80
2018-07-28T14:03:11.221Z,31.00
2018-07-28T14:05:39.378Z,31.20
2018-07-28T14:08:07.582Z,31.20
2018-07-28T14:10:35.749Z,31.10
2018-07-28T14:13:04.090Z,31.30
2018-07-28T14:15:32.355Z,31.10
2018-07-28T14:18:00.533Z,31.10
2018-07-28T14:20:28.686Z,31.00
2018-07-28T14:22:56.863Z,30.90
2018-07-28T14:25:25.083Z,30.80
2018-07-28T14:27:53.246Z,30.50
2018-07-28T14:30:21.506Z,30.40
2018-07-28T14:32:49.723Z,30.30
2018-07-28T14:35:18.713Z,30.30
2018-07-28T14:37:46.917Z,30.60
2018-07-28T14:40:15.110Z,30.80
2018-07-28T14:42:43.252Z,31.00
2018-07-28T14:45:11.871Z,31.00
2018-07-28T14:47:40.123Z,30.60
2018-07-28T14:50:08.422Z,30.60
2018-07-28T14:52:36.951Z,30.60
2018-07-28T14:57:33.399Z,30.40
2018-07-28T15:00:01.631Z,30.40
2018-07-28T15:02:29.927Z,30.80
2018-07-28T15:04:58.103Z,30.90
2018-07-28T15:07:26.449Z,31.30
2018-07-28T15:09:54.624Z,30.90
2018-07-28T15:12:22.804Z,30.80
2018-07-28T15:14:51.015Z,30.40
2018-07-28T15:17:19.179Z,30.20
2018-07-28T15:27:12.155Z,27.70
2018-07-28T15:29:40.316Z,26.70
2018-07-28T15:46:56.307Z,26.50
2018-07-28T15:49:24.534Z,23.60
2018-07-28T15:51:52.720Z,23.30
2018-07-28T15:54:20.884Z,23.30
2018-07-28T15:56:49.119Z,23.40
2018-07-28T15:59:17.339Z,23.20
2018-07-28T16:01:45.538Z,23.10
2018-07-28T16:04:13.663Z,23.00
2018-07-28T16:06:41.823Z,23.00
2018-07-28T16:09:10.687Z,22.90
2018-07-28T16:11:38.847Z,22.90
2018-07-28T16:14:07.007Z,22.90
2018-07-28T16:16:35.185Z,22.90
2018-07-28T16:19:03.383Z,23.00
2018-07-28T16:21:31.576Z,23.10
2018-07-28T16:23:59.891Z,23.20
2018-07-28T16:26:28.063Z,23.20
2018-07-28T16:28:56.895Z,23.30
2018-07-28T16:31:25.416Z,23.40
2018-07-28T16:33:53.588Z,23.40
2018-07-28T16:36:21.848Z,23.60
2018-07-28T16:38:50.072Z,23.60
2018-07-28T16:41:18.266Z,23.80
2018-07-28T16:43:46.424Z,23.80
2018-07-28T16:46:14.597Z,23.70
2018-07-28T16:48:42.783Z,23.80
2018-07-28T16:51:11.004Z,23.90
2018-07-28T16:53:39.124Z,24.00
2018-07-28T16:56:07.374Z,24.10
2018-07-28T16:58:35.520Z,24.30
2018-07-28T17:01:03.684Z,24.40
2018-07-28T17:03:31.876Z,24.20
2018-07-28T17:06:00.109Z,24.10
2018-07-28T17:08:28.322Z,24.00
2018-07-28T17:10:56.501Z,24.00
2018-07-28T17:13:24.752Z,24.20
2018-07-28T17:15:52.921Z,24.40
2018-07-28T17:18:21.657Z,24.50
2018-07-28T17:20:49.888Z,24.50
2018-07-28T17:23:18.073Z,24.50
2018-07-28T17:25:46.252Z,24.50
2018-07-28T17:28:14.424Z,24.30
2018-07-28T17:30:42.632Z,24.30
2018-07-28T17:33:10.782Z,24.40
2018-07-28T17:35:38.961Z,24.20
2018-07-28T17:38:07.581Z,24.30
2018-07-28T17:40:35.786Z,24.20
2018-07-28T17:43:04.017Z,24.30
2018-07-28T17:45:32.274Z,24.40
2018-07-28T17:48:00.514Z,24.40
2018-07-28T17:50:28.712Z,24.30
2018-07-28T17:52:56.885Z,24.20
2018-07-28T17:55:25.106Z,24.00
2018-07-28T17:57:53.396Z,23.90
2018-07-28T18:00:21.597Z,24.00
2018-07-28T18:02:49.747Z,24.10
2018-07-28T18:05:17.935Z,24.10
2018-07-28T18:07:46.167Z,24.00
2018-07-28T18:10:14.337Z,23.80
2018-07-28T18:12:42.540Z,23.70
2018-07-28T18:15:10.709Z,23.70
2018-07-28T18:17:38.895Z,23.80
2018-07-28T18:20:07.139Z,23.70
2018-07-28T18:22:35.323Z,23.60
2018-07-28T18:25:03.587Z,23.70
2018-07-28T18:27:31.827Z,23.70
2018-07-28T18:30:00.058Z,23.60
2018-07-28T18:32:28.257Z,23.50
2018-07-28T18:34:56.519Z,23.40
2018-07-28T18:37:24.708Z,23.50
2018-07-28T18:39:52.907Z,23.70
2018-07-28T18:42:21.124Z,23.60
2018-07-28T18:44:49.312Z,23.60
2018-07-28T18:47:17.503Z,23.30
2018-07-28T18:49:45.705Z,23.10
2018-07-28T18:52:13.872Z,23.10
2018-07-28T18:54:42.100Z,23.10
2018-07-28T18:57:10.309Z,23.20
2018-07-28T18:59:38.507Z,23.10
2018-07-28T19:02:06.721Z,23.00
2018-07-28T19:04:34.943Z,23.00
2018-07-28T19:07:03.147Z,22.90
2018-07-28T19:09:36.711Z,22.80
2018-07-28T19:12:04.895Z,22.60
2018-07-28T19:14:36.704Z,22.60
2018-07-28T19:17:05.049Z,22.60
2018-07-28T19:19:33.280Z,22.60
2018-07-28T19:22:01.516Z,22.60
2018-07-28T19:24:29.720Z,22.70
2018-07-28T19:26:57.896Z,22.70
2018-07-28T19:29:31.601Z,22.60
2018-07-28T19:31:59.793Z,22.70
2018-07-28T19:34:27.968Z,22.70
2018-07-28T19:37:01.526Z,22.70
2018-07-28T19:39:29.788Z,22.60
2018-07-28T19:42:03.565Z,22.60
2018-07-28T19:44:31.865Z,22.50
2018-07-28T19:49:28.066Z,22.40
2018-07-28T19:51:56.225Z,22.40
2018-07-28T19:54:24.437Z,22.40
2018-07-28T19:56:52.638Z,22.40
2018-07-28T19:59:21.257Z,22.30
2018-07-28T20:01:49.461Z,22.30
2018-07-28T20:04:17.770Z,22.30
2018-07-28T20:09:13.902Z,22.30
2018-07-28T20:11:42.121Z,22.40
2018-07-28T20:14:10.451Z,22.40
2018-07-28T20:16:38.570Z,22.40
2018-07-28T20:19:08.153Z,22.40
2018-07-28T20:21:36.351Z,22.40
2018-07-28T20:24:04.658Z,22.40
2018-07-28T20:26:32.921Z,22.30
2018-07-28T20:29:01.487Z,22.20
2018-07-28T20:31:29.666Z,22.20
2018-07-28T20:36:25.934Z,22.00
2018-07-28T20:38:54.106Z,22.00
2018-07-28T20:41:22.365Z,22.00
2018-07-28T20:43:50.750Z,22.00
2018-07-28T20:46:18.955Z,22.00
2018-07-28T20:48:47.130Z,22.00
2018-07-28T20:51:15.330Z,21.90
2018-07-28T20:53:43.482Z,22.00
2018-07-28T20:56:11.690Z,22.00
2018-07-28T20:58:39.859Z,22.00
2018-07-28T21:01:08.502Z,22.00
2018-07-28T21:03:37.118Z,21.90
2018-07-28T21:06:05.694Z,21.80
2018-07-28T21:08:33.890Z,21.70
2018-07-28T21:11:02.114Z,21.60
2018-07-28T21:13:30.282Z,21.60
2018-07-28T21:15:58.488Z,21.50
2018-07-28T21:18:27.075Z,21.50
2018-07-28T21:20:55.267Z,21.40
2018-07-28T21:23:23.443Z,21.40
2018-07-28T21:25:51.639Z,21.40
2018-07-28T21:28:19.794Z,21.30
2018-07-28T21:30:47.950Z,21.30
2018-07-28T21:33:16.206Z,21.20
2018-07-28T21:35:44.391Z,21.20
2018-07-28T21:38:12.580Z,21.20
2018-07-28T21:40:40.771Z,21.20
2018-07-28T21:43:08.942Z,21.10
2018-07-28T21:45:37.151Z,21.00
2018-07-28T21:48:05.550Z,20.80
2018-07-28T21:50:33.711Z,20.80
2018-07-28T21:53:01.907Z,20.60
2018-07-28T21:55:30.099Z,20.50
2018-07-28T21:57:58.278Z,20.50
2018-07-28T22:00:26.468Z,20.40
2018-07-28T22:02:54.643Z,20.40
2018-07-28T22:05:22.807Z,20.40
2018-07-28T22:07:51.562Z,20.40
2018-07-28T22:10:19.771Z,20.40
2018-07-28T22:12:47.951Z,20.30
2018-07-28T22:15:16.126Z,20.40
2018-07-28T22:17:44.343Z,20.40
2018-07-28T22:20:12.563Z,20.40
2018-07-28T22:22:40.734Z,20.40
2018-07-28T22:25:08.940Z,20.50
2018-07-28T22:27:37.091Z,20.50
2018-07-28T22:30:05.544Z,20.50
2018-07-28T22:32:33.744Z,20.50
2018-07-28T22:35:01.947Z,20.50
2018-07-28T22:37:30.231Z,20.50
2018-07-28T22:39:58.347Z,20.50
2018-07-28T22:42:38.087Z,20.40
2018-07-28T22:47:30.949Z,20.30
2018-07-28T22:49:59.135Z,20.30
2018-07-28T22:54:55.275Z,20.30
2018-07-28T22:57:23.448Z,20.20
2018-07-28T22:59:51.639Z,20.30
2018-07-28T23:02:19.840Z,20.30
2018-07-28T23:04:48.019Z,20.40
2018-07-28T23:07:16.200Z,20.40
2018-07-28T23:09:44.391Z,20.30
2018-07-28T23:12:12.552Z,20.30
2018-07-28T23:14:40.721Z,20.30
2018-07-28T23:17:08.916Z,20.30
2018-07-28T23:19:37.076Z,20.20
2018-07-28T23:22:05.312Z,20.20
2018-07-28T23:24:33.515Z,20.10
2018-07-28T23:27:01.739Z,20.00
2018-07-28T23:29:29.890Z,20.00
2018-07-28T23:31:58.088Z,19.90
2018-07-28T23:34:27.171Z,20.00
2018-07-28T23:36:55.372Z,19.90
2018-07-28T23:39:23.560Z,19.60
2018-07-28T23:41:51.836Z,19.60
2018-07-28T23:44:20.000Z,19.30
2018-07-28T23:46:48.208Z,19.00
2018-07-28T23:49:16.384Z,18.90
2018-07-28T23:51:44.559Z,18.80
2018-07-28T23:54:12.736Z,18.70
2018-07-28T23:56:40.925Z,18.70
2018-07-28T23:59:09.117Z,18.80
